createdAt,value
2023-11-07T00:02:23.963Z,10.04
2023-11-07T00:04:50.224Z,10.05
2023-11-07T00:07:16.440Z,10.07
2023-11-07T00:09:42.673Z,10.10
2023-11-07T00:12:08.835Z,9.97
2023-11-07T00:14:36.102Z,10.01
2023-11-07T00:17:02.299Z,10.01
2023-11-07T00:19:29.533Z,9.89
2023-11-07T00:21:57.799Z,9.86
2023-11-07T00:24:24.105Z,9.81
2023-11-07T00:26:50.329Z,9.82
2023-11-07T00:29:17.774Z,9.81
2023-11-07T00:31:44.220Z,9.80
2023-11-07T00:34:10.595Z,9.83
2023-11-07T00:36:36.926Z,9.80
2023-11-07T00:39:03.247Z,9.79
2023-11-07T00:41:29.531Z,9.86
2023-11-07T00:43:55.883Z,9.96
2023-11-07T00:46:25.267Z,10.00
2023-11-07T00:48:51.644Z,10.00
2023-11-07T00:51:18.090Z,10.01
2023-11-07T00:53:44.304Z,10.02
2023-11-07T00:56:10.473Z,9.99
2023-11-07T00:58:36.715Z,10.04
2023-11-07T01:01:03.719Z,10.06
2023-11-07T01:03:30.113Z,10.13
2023-11-07T01:05:57.492Z,10.14
2023-11-07T01:08:23.701Z,10.22
2023-11-07T01:10:49.974Z,10.24
2023-11-07T01:13:16.384Z,10.26
2023-11-07T01:15:42.567Z,10.28
2023-11-07T01:18:08.867Z,10.39
2023-11-07T01:20:35.247Z,10.37
2023-11-07T01:23:01.461Z,10.42
2023-11-07T01:25:27.813Z,10.45
2023-11-07T01:27:54.021Z,10.48
2023-11-07T01:30:20.309Z,10.47
2023-11-07T01:32:46.659Z,10.44
2023-11-07T01:35:14.022Z,10.43
2023-11-07T01:37:40.176Z,10.41
2023-11-07T01:40:06.375Z,10.38
2023-11-07T01:42:32.642Z,10.37
2023-11-07T01:44:58.931Z,10.39
2023-11-07T01:47:25.165Z,10.49
2023-11-07T01:49:51.446Z,10.47
2023-11-07T01:52:17.732Z,10.33
2023-11-07T01:54:43.967Z,10.31
2023-11-07T01:57:10.190Z,10.38
2023-11-07T01:59:36.361Z,10.49
2023-11-07T02:02:02.575Z,10.39
2023-11-07T02:04:28.899Z,10.38
2023-11-07T02:06:56.312Z,10.50
2023-11-07T02:09:22.554Z,10.51
2023-11-07T02:11:48.757Z,10.56
2023-11-07T02:14:14.981Z,10.49
2023-11-07T02:16:41.289Z,10.51
2023-11-07T02:19:07.616Z,10.50
2023-11-07T02:21:33.961Z,10.46
2023-11-07T02:24:02.421Z,10.44
2023-11-07T02:26:28.610Z,10.36
2023-11-07T02:28:55.725Z,10.35
2023-11-07T02:31:22.120Z,10.36
2023-11-07T02:33:48.537Z,10.24
2023-11-07T02:36:14.856Z,10.12
2023-11-07T02:38:41.730Z,10.07
2023-11-07T02:41:08.072Z,9.94
2023-11-07T02:43:34.336Z,9.89
2023-11-07T02:46:00.551Z,9.89
2023-11-07T02:48:27.761Z,9.85
2023-11-07T02:50:55.150Z,9.83
2023-11-07T02:53:21.396Z,9.88
2023-11-07T02:55:47.590Z,9.88
2023-11-07T02:58:14.064Z,9.85
2023-11-07T03:00:40.509Z,9.83
2023-11-07T03:03:06.789Z,9.76
2023-11-07T03:05:36.043Z,9.80
2023-11-07T03:08:02.325Z,9.77
2023-11-07T03:10:28.489Z,9.83
2023-11-07T03:12:56.886Z,9.81
2023-11-07T03:15:23.220Z,9.81
2023-11-07T03:17:49.496Z,9.82
2023-11-07T03:20:15.929Z,9.84
2023-11-07T03:22:42.172Z,9.88
2023-11-07T03:25:09.540Z,9.81
2023-11-07T03:27:35.776Z,9.78
2023-11-07T03:30:02.081Z,9.82
2023-11-07T03:32:28.332Z,9.85
2023-11-07T03:34:54.589Z,9.80
2023-11-07T03:37:20.978Z,9.81
2023-11-07T03:39:47.170Z,9.78
2023-11-07T03:42:13.398Z,9.89
2023-11-07T03:44:39.680Z,9.93
2023-11-07T03:47:06.195Z,9.93
2023-11-07T03:49:32.699Z,10.06
2023-11-07T03:52:00.977Z,10.05
2023-11-07T03:54:27.141Z,10.09
2023-11-07T03:56:53.444Z,10.00
2023-11-07T03:59:19.710Z,10.02
2023-11-07T04:01:50.903Z,10.00
2023-11-07T04:04:17.117Z,9.92
2023-11-07T04:06:44.484Z,9.99
2023-11-07T04:09:10.804Z,10.03
2023-11-07T04:11:37.040Z,9.95
2023-11-07T04:14:03.268Z,9.99
2023-11-07T04:16:30.266Z,9.93
2023-11-07T04:18:56.752Z,9.86
2023-11-07T04:21:27.493Z,9.92
2023-11-07T04:23:53.784Z,9.90
2023-11-07T04:26:20.328Z,9.89
2023-11-07T04:28:48.609Z,9.89
2023-11-07T04:31:14.802Z,10.00
2023-11-07T04:33:41.068Z,10.05
2023-11-07T04:36:10.214Z,10.05
2023-11-07T04:38:36.462Z,10.01
2023-11-07T04:41:02.692Z,9.99
2023-11-07T04:43:28.907Z,10.04
2023-11-07T04:45:55.152Z,10.08
2023-11-07T04:48:21.519Z,9.99
2023-11-07T04:50:48.045Z,10.08
2023-11-07T04:53:14.289Z,10.13
2023-11-07T04:55:40.484Z,10.23
2023-11-07T04:58:06.686Z,10.13
2023-11-07T05:00:32.856Z,10.08
2023-11-07T05:02:59.315Z,10.04
2023-11-07T05:05:25.630Z,10.09
2023-11-07T05:07:54.278Z,10.17
2023-11-07T05:10:20.476Z,10.10
2023-11-07T05:12:47.045Z,10.06
2023-11-07T05:15:13.327Z,10.09
2023-11-07T05:17:39.777Z,10.13
2023-11-07T05:20:06.029Z,10.13
2023-11-07T05:22:34.602Z,10.15
2023-11-07T05:25:01.620Z,10.16
2023-11-07T05:27:28.533Z,10.12
2023-11-07T05:29:57.247Z,10.13
2023-11-07T05:32:23.469Z,10.06
2023-11-07T05:34:49.937Z,10.02
2023-11-07T05:37:18.562Z,10.05
2023-11-07T05:39:44.786Z,9.96
2023-11-07T05:42:11.089Z,9.97
2023-11-07T05:47:27.245Z,9.80
2023-11-07T05:49:54.218Z,9.81
2023-11-07T05:52:20.547Z,9.80
2023-11-07T05:54:46.749Z,9.79
2023-11-07T05:57:12.999Z,9.68
2023-11-07T05:59:39.216Z,9.67
2023-11-07T06:02:05.532Z,9.72
2023-11-07T06:04:31.799Z,9.75
2023-11-07T06:07:01.963Z,9.64
2023-11-07T06:09:28.264Z,9.59
2023-11-07T06:11:54.477Z,9.60
2023-11-07T06:14:20.746Z,9.70
2023-11-07T06:16:46.979Z,9.67
2023-11-07T06:19:13.267Z,9.65
2023-11-07T06:21:40.548Z,9.60
2023-11-07T06:24:06.808Z,9.66
2023-11-07T06:26:33.553Z,9.69
2023-11-07T06:28:59.772Z,9.74
2023-11-07T06:31:27.549Z,9.60
2023-11-07T06:33:54.040Z,9.53
2023-11-07T06:36:21.501Z,9.58
2023-11-07T06:38:47.736Z,9.47
2023-11-07T06:41:18.790Z,9.45
2023-11-07T06:43:49.234Z,9.51
2023-11-07T06:46:15.456Z,9.39
2023-11-07T06:48:41.889Z,9.38
2023-11-07T06:51:08.200Z,9.32
2023-11-07T06:53:35.486Z,9.38
2023-11-07T06:56:01.792Z,9.38
2023-11-07T06:58:28.003Z,9.38
2023-11-07T07:03:44.234Z,9.25
2023-11-07T07:06:10.581Z,9.26
2023-11-07T07:08:36.847Z,9.16
2023-11-07T07:11:05.257Z,9.24
2023-11-07T07:13:31.695Z,9.28
2023-11-07T07:15:57.912Z,9.31
2023-11-07T07:18:29.496Z,9.25
2023-11-07T07:20:55.844Z,9.23
2023-11-07T07:23:22.104Z,9.35
2023-11-07T07:25:48.438Z,9.23
2023-11-07T07:28:14.664Z,9.31
2023-11-07T07:30:40.894Z,9.27
2023-11-07T07:33:07.236Z,9.37
2023-11-07T07:35:33.499Z,9.36
2023-11-07T07:38:00.849Z,9.32
2023-11-07T07:40:28.076Z,9.41
2023-11-07T07:42:54.503Z,9.35
2023-11-07T07:45:21.915Z,9.35
2023-11-07T07:47:50.190Z,9.42
2023-11-07T07:50:16.550Z,9.44
2023-11-07T07:52:42.760Z,9.40
2023-11-07T07:55:23.464Z,9.39
2023-11-07T07:57:54.836Z,9.45
2023-11-07T08:00:21.217Z,9.36
2023-11-07T08:02:47.758Z,9.31
2023-11-07T08:05:14.153Z,9.32
2023-11-07T08:07:40.361Z,9.42
2023-11-07T08:10:11.572Z,9.43
2023-11-07T08:12:37.805Z,9.44
2023-11-07T08:15:04.344Z,9.57
2023-11-07T08:17:30.601Z,9.58
2023-11-07T08:19:56.847Z,9.65
2023-11-07T08:22:23.095Z,9.63
2023-11-07T08:24:49.357Z,9.71
2023-11-07T08:27:16.327Z,9.79
2023-11-07T08:29:43.431Z,9.80
2023-11-07T08:32:09.714Z,9.88
2023-11-07T08:34:36.024Z,10.01
2023-11-07T08:37:08.902Z,10.06
2023-11-07T08:39:37.978Z,10.00
2023-11-07T08:42:05.356Z,10.05
2023-11-07T08:44:31.556Z,10.15
2023-11-07T08:46:58.536Z,10.04
2023-11-07T08:49:24.913Z,10.02
2023-11-07T08:51:51.129Z,10.02
2023-11-07T08:54:17.516Z,10.02
2023-11-07T08:56:43.872Z,10.25
2023-11-07T08:59:10.112Z,10.34
2023-11-07T09:01:36.379Z,10.52
2023-11-07T09:04:05.541Z,10.55
2023-11-07T09:06:31.926Z,10.61
2023-11-07T09:09:02.415Z,10.67
2023-11-07T09:11:28.656Z,10.74
2023-11-07T09:13:54.919Z,10.88
2023-11-07T09:16:23.425Z,10.86
2023-11-07T09:18:49.702Z,10.91
2023-11-07T09:21:16.385Z,10.99
2023-11-07T09:23:42.704Z,10.90
2023-11-07T09:26:08.957Z,10.82
2023-11-07T09:28:35.181Z,10.91
2023-11-07T09:31:01.489Z,10.97
2023-11-07T09:33:29.802Z,11.03
2023-11-07T09:35:56.114Z,11.14
2023-11-07T09:38:22.428Z,11.15
2023-11-07T09:40:48.717Z,11.19
2023-11-07T09:43:15.023Z,11.21
2023-11-07T09:45:41.422Z,11.25
2023-11-07T09:48:08.489Z,11.36
2023-11-07T09:50:35.059Z,11.38
2023-11-07T09:53:05.879Z,11.37
2023-11-07T09:55:33.429Z,11.34
2023-11-07T10:03:41.578Z,11.47
2023-11-07T10:06:14.908Z,11.56
2023-11-07T10:08:41.340Z,11.59
2023-11-07T10:11:09.616Z,11.84
2023-11-07T10:13:37.084Z,11.78
2023-11-07T10:16:16.147Z,11.87
2023-11-07T10:18:45.289Z,11.88
2023-11-07T10:21:17.767Z,11.84
2023-11-07T10:23:46.519Z,11.91
2023-11-07T10:26:16.456Z,11.93
2023-11-07T10:28:42.809Z,11.76
2023-11-07T10:31:13.433Z,11.75
2023-11-07T10:33:42.271Z,11.84
2023-11-07T10:36:08.910Z,11.71
2023-11-07T10:38:37.621Z,11.75
2023-11-07T10:41:04.453Z,11.76
2023-11-07T10:43:30.634Z,11.75
2023-11-07T10:45:57.980Z,11.71
2023-11-07T10:48:28.494Z,11.87
2023-11-07T10:50:54.803Z,11.99
2023-11-07T10:53:20.995Z,11.95
2023-11-07T10:55:47.593Z,11.94
2023-11-07T10:58:13.899Z,11.92
2023-11-07T11:00:40.146Z,11.99
2023-11-07T11:03:06.764Z,11.96
2023-11-07T11:05:33.039Z,11.98
2023-11-07T11:08:10.863Z,12.03
2023-11-07T11:10:37.106Z,11.85
2023-11-07T11:13:03.302Z,12.06
2023-11-07T11:15:29.599Z,12.18
2023-11-07T11:17:56.148Z,12.25
2023-11-07T11:20:30.388Z,12.29
2023-11-07T11:22:56.564Z,12.36
2023-11-07T11:25:25.259Z,12.55
2023-11-07T11:27:51.686Z,12.54
2023-11-07T11:30:20.078Z,12.52
2023-11-07T11:32:46.593Z,12.64
2023-11-07T11:35:12.843Z,12.74
2023-11-07T11:37:40.526Z,12.72
2023-11-07T11:40:10.994Z,12.52
2023-11-07T11:42:39.646Z,12.55
2023-11-07T11:45:07.317Z,12.54
2023-11-07T11:47:33.774Z,12.48
2023-11-07T11:50:00.182Z,12.43
2023-11-07T11:52:32.595Z,12.47
2023-11-07T11:54:59.232Z,12.59
2023-11-07T11:57:26.618Z,12.74
2023-11-07T11:59:55.834Z,12.86
2023-11-07T12:02:24.241Z,12.90
2023-11-07T12:04:50.437Z,12.77
2023-11-07T12:07:17.168Z,12.70
2023-11-07T12:09:43.558Z,12.63
2023-11-07T12:12:12.866Z,12.53
2023-11-07T12:14:39.168Z,12.65
2023-11-07T12:17:05.374Z,12.55
2023-11-07T12:19:32.192Z,12.42
2023-11-07T12:30:32.364Z,12.31
2023-11-07T12:33:01.411Z,12.45
2023-11-07T12:35:27.966Z,12.30
2023-11-07T12:37:56.123Z,12.22
2023-11-07T12:40:22.701Z,12.16
2023-11-07T12:42:50.973Z,12.10
2023-11-07T12:45:22.007Z,12.18
2023-11-07T12:47:55.198Z,12.21
2023-11-07T12:50:24.473Z,12.28
2023-11-07T12:52:54.858Z,12.04
2023-11-07T12:55:25.431Z,12.00
2023-11-07T12:57:51.679Z,11.85
2023-11-07T13:06:07.900Z,11.27
2023-11-07T13:11:24.938Z,11.07
2023-11-07T13:11:32.920Z,11.14
2023-11-07T13:13:56.288Z,11.32
2023-11-07T13:16:28.362Z,11.14
2023-11-07T13:19:04.078Z,11.23
2023-11-07T13:21:41.478Z,11.13
2023-11-07T13:25:07.856Z,11.17
2023-11-07T13:27:03.197Z,11.11
2023-11-07T13:29:29.701Z,11.17
2023-11-07T13:31:56.017Z,11.36
2023-11-07T13:34:34.587Z,11.41
2023-11-07T13:37:08.274Z,11.53
2023-11-07T13:40:01.519Z,11.53
2023-11-07T13:42:43.286Z,11.52
2023-11-07T13:47:54.408Z,11.42
2023-11-07T13:50:22.739Z,11.27
2023-11-07T13:52:54.978Z,11.22
2023-11-07T13:55:21.255Z,11.29
2023-11-07T13:57:47.560Z,11.32
2023-11-07T14:00:15.315Z,11.36
2023-11-07T14:02:41.675Z,11.41
2023-11-07T14:05:08.028Z,11.38
2023-11-07T14:07:44.847Z,11.31
2023-11-07T14:10:11.215Z,11.22
2023-11-07T14:12:37.558Z,11.30
2023-11-07T14:15:03.765Z,11.34
2023-11-07T14:17:29.973Z,11.27
2023-11-07T14:19:56.466Z,11.29
2023-11-07T14:22:22.765Z,11.33
2023-11-07T14:24:48.937Z,11.31
2023-11-07T14:27:15.144Z,11.24
2023-11-07T14:29:55.659Z,11.30
2023-11-07T14:32:27.434Z,11.27
2023-11-07T14:34:53.615Z,11.24
2023-11-07T14:37:19.932Z,11.22
2023-11-07T14:39:46.280Z,11.18
2023-11-07T14:42:14.450Z,11.10
2023-11-07T14:44:40.699Z,11.08
2023-11-07T14:47:06.953Z,11.01
2023-11-07T14:49:33.225Z,11.05
2023-11-07T14:52:01.797Z,11.02
2023-11-07T14:54:28.163Z,11.08
2023-11-07T14:57:01.048Z,11.00
2023-11-07T14:59:33.360Z,10.89
2023-11-07T15:01:59.653Z,10.92
2023-11-07T15:04:26.064Z,11.02
2023-11-07T15:06:54.650Z,10.89
2023-11-07T15:09:20.988Z,10.92
2023-11-07T15:11:47.233Z,10.90
2023-11-07T15:14:13.525Z,10.81
2023-11-07T15:16:39.717Z,10.86
2023-11-07T15:19:06.326Z,10.74
2023-11-07T15:21:34.860Z,10.65
2023-11-07T15:24:01.490Z,10.62
2023-11-07T15:26:27.794Z,10.52
2023-11-07T15:28:54.254Z,10.58
2023-11-07T15:31:21.287Z,10.66
2023-11-07T15:33:47.588Z,10.53
2023-11-07T15:36:13.956Z,10.50
2023-11-07T15:38:42.944Z,10.42
2023-11-07T15:41:11.032Z,10.37
2023-11-07T15:43:37.230Z,10.40
2023-11-07T15:46:03.518Z,10.48
2023-11-07T15:48:31.079Z,10.57
2023-11-07T15:50:57.579Z,10.56
2023-11-07T15:53:24.534Z,10.63
2023-11-07T15:55:53.008Z,10.64
2023-11-07T15:58:19.224Z,10.60
2023-11-07T16:00:45.426Z,10.60
2023-11-07T16:03:17.151Z,10.57
2023-11-07T16:05:44.832Z,10.63
2023-11-07T16:08:15.433Z,10.41
2023-11-07T16:10:41.851Z,10.34
2023-11-07T16:13:08.128Z,10.31
2023-11-07T16:15:44.903Z,10.34
2023-11-07T16:18:11.267Z,10.43
2023-11-07T16:23:21.286Z,10.54
2023-11-07T16:25:47.499Z,10.46
2023-11-07T16:28:13.827Z,10.33
2023-11-07T16:30:40.236Z,10.25
2023-11-07T16:33:06.646Z,10.13
2023-11-07T16:35:34.018Z,10.09
2023-11-07T16:38:03.030Z,10.07
2023-11-07T16:40:29.382Z,10.09
2023-11-07T16:42:55.716Z,10.11
2023-11-07T16:45:22.194Z,10.01
2023-11-07T16:47:48.632Z,10.00
2023-11-07T16:50:14.936Z,10.00
2023-11-07T16:52:42.326Z,10.01
2023-11-07T16:55:08.711Z,10.01
2023-11-07T16:57:35.011Z,10.04
2023-11-07T17:00:02.862Z,10.00
2023-11-07T17:02:31.380Z,9.95
2023-11-07T17:04:58.720Z,9.87
2023-11-07T17:07:26.553Z,9.91
2023-11-07T17:09:53.058Z,9.96
2023-11-07T17:12:40.638Z,9.97
2023-11-07T17:15:11.608Z,9.85
2023-11-07T17:17:39.191Z,9.93
2023-11-07T17:20:05.408Z,9.92
2023-11-07T17:22:32.648Z,9.96
2023-11-07T17:24:58.978Z,9.93
2023-11-07T17:27:25.321Z,9.94
2023-11-07T17:29:51.595Z,9.84
2023-11-07T17:32:18.944Z,9.80
2023-11-07T17:34:45.105Z,9.90
2023-11-07T17:40:04.572Z,10.02
2023-11-07T17:42:33.128Z,9.97
2023-11-07T17:44:59.390Z,9.94
2023-11-07T17:47:29.601Z,9.93
2023-11-07T17:49:56.051Z,9.89
2023-11-07T17:52:23.280Z,9.83
2023-11-07T17:54:49.442Z,9.92
2023-11-07T17:57:18.884Z,9.89
2023-11-07T17:59:45.233Z,9.92
2023-11-07T18:02:12.702Z,9.78
2023-11-07T18:04:38.937Z,9.82
2023-11-07T18:09:55.627Z,9.75
2023-11-07T18:12:22.005Z,9.60
2023-11-07T18:14:48.329Z,9.66
2023-11-07T18:17:14.795Z,9.73
2023-11-07T18:19:42.331Z,9.77
2023-11-07T18:22:09.048Z,9.76
2023-11-07T18:24:35.341Z,9.81
2023-11-07T18:27:21.722Z,9.78
2023-11-07T18:30:08.207Z,9.78
2023-11-07T18:32:38.416Z,9.85
2023-11-07T18:40:51.562Z,9.79
2023-11-07T18:51:29.281Z,9.63
2023-11-07T18:53:55.425Z,9.62
2023-11-07T18:56:21.572Z,9.50
2023-11-07T18:58:47.751Z,9.59
2023-11-07T19:01:14.571Z,9.45
2023-11-07T19:03:47.101Z,9.42
2023-11-07T19:06:14.882Z,9.27
2023-11-07T19:08:41.376Z,9.22
2023-11-07T19:11:07.675Z,9.22
2023-11-07T19:13:34.068Z,9.23
2023-11-07T19:16:07.896Z,9.28
2023-11-07T19:18:35.182Z,9.11
2023-11-07T19:21:05.705Z,9.17
2023-11-07T19:23:31.982Z,9.02
2023-11-07T19:25:59.333Z,9.06
2023-11-07T19:28:25.569Z,9.03
2023-11-07T19:30:52.813Z,9.04
2023-11-07T19:33:20.404Z,9.02
2023-11-07T19:35:46.672Z,8.97
2023-11-07T19:38:12.924Z,8.99
2023-11-07T19:40:41.573Z,9.07
2023-11-07T19:43:08.576Z,9.09
2023-11-07T19:45:38.697Z,9.10
2023-11-07T19:48:05.127Z,9.05
2023-11-07T19:50:31.494Z,9.07
2023-11-07T19:53:06.498Z,9.15
2023-11-07T19:55:37.761Z,9.19
2023-11-07T19:58:04.034Z,9.18
2023-11-07T20:00:30.467Z,9.21
2023-11-07T20:02:56.768Z,9.18
2023-11-07T20:05:25.779Z,8.99
2023-11-07T20:07:56.304Z,9.03
2023-11-07T20:10:25.695Z,9.05
2023-11-07T20:12:52.173Z,9.00
2023-11-07T20:15:18.552Z,9.03
2023-11-07T20:17:46.891Z,8.96
2023-11-07T20:20:14.256Z,8.98
2023-11-07T20:22:40.452Z,8.94
2023-11-07T20:25:07.037Z,9.00
2023-11-07T20:27:33.379Z,8.91
2023-11-07T20:29:59.692Z,8.84
2023-11-07T20:32:25.879Z,8.81
2023-11-07T20:34:52.255Z,8.82
2023-11-07T20:37:19.638Z,8.80
2023-11-07T20:39:45.903Z,8.77
2023-11-07T20:42:12.188Z,8.81
2023-11-07T20:44:44.551Z,8.86
2023-11-07T20:47:11.573Z,8.80
2023-11-07T20:49:40.022Z,8.91
2023-11-07T20:52:15.169Z,8.86
2023-11-07T20:54:48.953Z,8.92
2023-11-07T20:57:18.330Z,8.98
2023-11-07T20:59:44.628Z,8.89
2023-11-07T21:02:10.822Z,8.96
2023-11-07T21:04:37.050Z,9.00
2023-11-07T21:07:05.706Z,8.95
2023-11-07T21:09:31.932Z,9.00
2023-11-07T21:12:07.040Z,9.04
2023-11-07T21:14:33.328Z,9.03
2023-11-07T21:16:59.492Z,8.99
2023-11-07T21:19:28.456Z,9.03
2023-11-07T21:24:22.818Z,9.18
2023-11-07T21:26:49.177Z,9.17
2023-11-07T21:29:21.495Z,9.20
2023-11-07T21:31:47.755Z,9.16
2023-11-07T21:34:14.017Z,9.20
2023-11-07T21:36:43.428Z,9.26
2023-11-07T21:39:10.548Z,9.18
2023-11-07T21:41:38.986Z,9.17
2023-11-07T21:44:05.163Z,9.15
2023-11-07T21:46:34.149Z,9.14
2023-11-07T21:49:00.350Z,9.18
2023-11-07T21:51:26.918Z,9.11
2023-11-07T21:53:54.508Z,9.06
2023-11-07T21:56:20.681Z,9.05
2023-11-07T21:58:46.862Z,9.03
2023-11-07T22:01:15.859Z,9.00
2023-11-07T22:03:42.821Z,9.02
2023-11-07T22:06:09.173Z,9.02
2023-11-07T22:08:35.353Z,9.03
2023-11-07T22:11:02.345Z,9.01
2023-11-07T22:13:28.662Z,8.95
2023-11-07T22:15:55.162Z,9.03
2023-11-07T22:18:21.403Z,9.02
2023-11-07T22:20:49.651Z,8.95
2023-11-07T22:23:18.414Z,9.03
2023-11-07T22:25:44.648Z,9.06
2023-11-07T22:28:11.096Z,9.03
2023-11-07T22:30:37.370Z,9.03
2023-11-07T22:33:03.846Z,9.10
2023-11-07T22:38:14.188Z,9.15
2023-11-07T22:40:40.344Z,9.11
2023-11-07T22:43:06.737Z,9.14
2023-11-07T22:45:33.042Z,9.13
2023-11-07T22:47:59.459Z,9.09
2023-11-07T22:50:25.774Z,9.12
2023-11-07T22:52:51.931Z,9.13
2023-11-07T22:55:18.234Z,9.15
2023-11-07T22:57:44.453Z,9.14
2023-11-07T23:00:10.754Z,9.22
2023-11-07T23:02:37.025Z,9.21
2023-11-07T23:05:03.607Z,9.19
2023-11-07T23:07:29.913Z,9.26
2023-11-07T23:09:56.110Z,9.24
2023-11-07T23:12:22.303Z,9.20
2023-11-07T23:14:48.481Z,9.24
2023-11-07T23:17:14.967Z,9.26
2023-11-07T23:19:41.261Z,9.31
2023-11-07T23:22:07.516Z,9.29
2023-11-07T23:24:33.728Z,9.32
2023-11-07T23:26:59.967Z,9.27
2023-11-07T23:29:28.625Z,9.34
2023-11-07T23:31:54.833Z,9.39
2023-11-07T23:34:21.133Z,9.37
2023-11-07T23:36:47.524Z,9.38
2023-11-07T23:39:13.797Z,9.36
2023-11-07T23:41:40.418Z,9.30
2023-11-07T23:44:09.133Z,9.34
2023-11-07T23:46:37.162Z,9.37
2023-11-07T23:49:04.822Z,9.30
2023-11-07T23:51:33.370Z,9.41
2023-11-07T23:53:59.554Z,9.50
2023-11-07T23:56:25.976Z,9.48
2023-11-07T23:58:52.392Z,9.36
